Time;durP1;ratioP1;P1;durP2;ratioP2;P2;SDS_P1;SDS_P2;PMS_P1;PMS_P2;Temp;Humidity;BMP_temperature;BMP_pressure;BME280_temperature;BME280_humidity;BME280_pressure;Samples;Min_cycle;Max_cycle;Signal;HPM_P1;HPM_P2
2021/04/09 00:00:14;;;;;;;18.98;9.35;;;;;;;-0.32;68.54;99636.88;5015083;28;20424;-62
2021/04/09 00:02:39;;;;;;;17.90;9.55;;;;;;;-0.27;67.97;99637.22;5015320;28;20026;-61
2021/04/09 00:05:07;;;;;;;19.90;9.25;;;;;;;-0.31;67.63;99635.88;5014925;28;20026;-61
2021/04/09 00:07:32;;;;;;;16.73;8.98;;;;;;;-0.25;66.91;99637.88;4997722;28;20022;-61
2021/04/09 00:09:58;;;;;;;18.25;10.18;;;;;;;-0.23;66.61;99635.06;5015390;28;20029;-61
2021/04/09 00:12:23;;;;;;;17.25;9.18;;;;;;;-0.17;67.59;99636.25;5014401;28;20524;-61
2021/04/09 00:14:49;;;;;;;21.20;10.75;;;;;;;-0.19;68.34;99630.31;5013754;28;20103;-61
2021/04/09 00:17:14;;;;;;;24.98;11.45;;;;;;;-0.25;66.28;99627.34;5014854;28;20535;-61
2021/04/09 00:19:39;;;;;;;21.00;10.20;;;;;;;-0.33;66.84;99632.56;5014969;28;20045;-61
2021/04/09 00:22:05;;;;;;;23.38;9.88;;;;;;;-0.30;67.08;99628.78;5013421;28;20045;-61
2021/04/09 00:24:30;;;;;;;22.38;9.60;;;;;;;0.03;65.90;99623.56;5015017;28;20074;-61
2021/04/09 00:26:58;;;;;;;18.95;7.35;;;;;;;0.05;65.06;99626.84;5014345;28;20084;-61
2021/04/09 00:29:24;;;;;;;15.95;8.43;;;;;;;-0.26;66.50;99630.94;5014914;28;20376;-61
2021/04/09 00:31:49;;;;;;;16.38;8.48;;;;;;;-0.31;66.58;99627.16;5014405;28;20030;-61
2021/04/09 00:34:14;;;;;;;16.80;7.95;;;;;;;-0.41;66.96;99622.03;5013503;28;20026;-61
2021/04/09 00:36:40;;;;;;;15.55;8.32;;;;;;;-0.41;67.32;99623.84;5013130;28;20037;-61
2021/04/09 00:39:06;;;;;;;14.80;8.63;;;;;;;-0.45;67.12;99611.00;5014848;28;20380;-61
2021/04/09 00:41:32;;;;;;;27.08;9.32;;;;;;;-0.52;67.24;99609.19;5014371;28;20529;-61
2021/04/09 00:43:58;;;;;;;16.98;8.77;;;;;;;-0.60;68.91;99607.38;5014619;28;20030;-61
2021/04/09 00:46:23;;;;;;;14.90;8.13;;;;;;;-0.73;68.79;99601.72;5014346;28;20049;-61
2021/04/09 00:48:49;;;;;;;14.30;8.23;;;;;;;-0.42;67.62;99601.97;5014606;28;20427;-61
2021/04/09 00:51:14;;;;;;;19.25;8.82;;;;;;;-0.12;66.44;99591.78;5014112;28;20034;-61
2021/04/09 00:53:43;;;;;;;16.10;7.97;;;;;;;-0.08;66.05;99590.44;5013479;28;20384;-61
2021/04/09 00:56:08;;;;;;;18.45;8.50;;;;;;;-0.25;66.14;99579.91;5013138;28;20484;-61
2021/04/09 00:58:34;;;;;;;17.38;8.35;;;;;;;-0.48;67.24;99599.97;4996986;28;20060;-61
2021/04/09 01:00:59;;;;;;;22.48;8.18;;;;;;;-0.62;67.86;99596.16;5012666;28;20130;-61
2021/04/09 01:03:25;;;;;;;17.73;8.35;;;;;;;-0.74;68.83;99585.09;5014311;28;20365;-61
2021/04/09 01:05:51;;;;;;;13.60;8.27;;;;;;;-0.92;69.34;99576.50;5013860;28;20104;-61
2021/04/09 01:08:17;;;;;;;17.17;8.82;;;;;;;-1.03;69.77;99582.03;5014158;28;20457;-61
2021/04/09 01:10:42;;;;;;;19.65;8.68;;;;;;;-1.06;70.25;99585.00;5012223;28;20049;-62
2021/04/09 01:13:08;;;;;;;15.88;8.00;;;;;;;-1.10;70.17;99574.81;5014298;28;20033;-61
2021/04/09 01:15:33;;;;;;;17.77;8.40;;;;;;;-1.09;70.33;99571.19;5013645;28;20038;-61
2021/04/09 01:18:05;;;;;;;16.10;7.55;;;;;;;-1.09;70.23;99565.91;5012711;28;20038;-61
2021/04/09 01:21:04;;;;;;;14.93;8.00;;;;;;;-0.92;69.90;99566.78;5013590;28;20495;-61
2021/04/09 01:23:50;;;;;;;17.15;7.45;;;;;;;-1.04;70.43;99567.25;5012696;28;20085;-61
2021/04/09 01:26:42;;;;;;;13.07;7.13;;;;;;;-1.10;70.48;99572.16;5013331;28;20073;-61
2021/04/09 01:29:45;;;;;;;15.38;8.40;;;;;;;-1.15;71.00;99570.97;4997757;28;20036;-61
2021/04/09 01:32:11;;;;;;;13.95;7.28;;;;;;;-1.15;70.96;99566.56;5013179;28;20504;-61
2021/04/09 01:34:41;;;;;;;15.80;8.00;;;;;;;-1.18;70.91;99566.03;5012257;28;20060;-61
2021/04/09 01:37:15;;;;;;;19.70;8.48;;;;;;;-1.15;73.73;99569.19;5011838;28;20046;-61
2021/04/09 01:39:42;;;;;;;23.58;8.60;;;;;;;-1.23;71.28;99569.13;5012458;28;20030;-61
2021/04/09 01:42:09;;;;;;;15.15;8.35;;;;;;;-1.27;71.57;99559.09;5011670;28;20065;-61
2021/04/09 01:44:35;;;;;;;20.95;9.43;;;;;;;-1.19;71.69;99557.34;5013491;28;20037;-61
2021/04/09 01:47:01;;;;;;;12.43;7.63;;;;;;;-1.09;70.80;99558.03;4995396;28;20061;-61
2021/04/09 01:49:27;;;;;;;15.40;7.95;;;;;;;-0.85;69.94;99551.16;5012087;28;20547;-61
2021/04/09 01:51:53;;;;;;;14.85;7.40;;;;;;;-0.90;70.59;99553.47;5011613;28;20190;-61
2021/04/09 01:54:19;;;;;;;13.05;7.53;;;;;;;-1.02;70.02;99555.59;5011948;28;20535;-61
2021/04/09 01:56:45;;;;;;;19.15;8.57;;;;;;;-1.25;70.88;99550.06;4995450;28;20038;-61
2021/04/09 01:59:12;;;;;;;16.00;7.45;;;;;;;-1.23;72.37;99553.34;5012192;28;20025;-61
2021/04/09 02:01:37;;;;;;;21.80;8.38;;;;;;;-1.25;71.20;99550.06;5012757;28;20040;-61
2021/04/09 02:04:02;;;;;;;17.30;8.90;;;;;;;-1.29;73.65;99548.75;5012298;28;20030;-61
2021/04/09 02:06:28;;;;;;;20.75;8.45;;;;;;;-1.36;72.02;99551.16;4995210;28;20451;-61
2021/04/09 02:08:53;;;;;;;17.30;7.60;;;;;;;-1.38;74.06;99539.16;4994682;28;20030;-61
2021/04/09 02:11:19;;;;;;;19.27;8.30;;;;;;;-1.35;72.79;99544.94;4994051;28;20054;-61
2021/04/09 02:13:44;;;;;;;15.60;7.15;;;;;;;-1.34;71.83;99540.50;4995326;28;20368;-61
2021/04/09 02:16:09;;;;;;;13.00;7.60;;;;;;;-1.55;72.49;99539.09;4994963;28;20050;-61
2021/04/09 02:18:35;;;;;;;16.83;7.38;;;;;;;-1.56;72.47;99537.44;5012911;28;20033;-61
2021/04/09 02:21:01;;;;;;;16.73;7.60;;;;;;;-1.55;72.69;99540.88;5012566;28;20034;-61
2021/04/09 02:23:27;;;;;;;14.48;7.35;;;;;;;-1.57;72.31;99535.81;5012869;28;20076;-61
2021/04/09 02:25:59;;;;;;;14.48;8.00;;;;;;;-1.56;72.88;99531.38;5011271;28;20034;-61
2021/04/09 02:28:25;;;;;;;14.07;7.30;;;;;;;-1.59;73.07;99524.63;5011381;28;20184;-61
2021/04/09 02:31:03;;;;;;;20.20;7.85;;;;;;;-1.44;72.70;99524.84;5012278;28;20132;-61
2021/04/09 02:33:34;;;;;;;19.05;7.80;;;;;;;-1.22;71.22;99528.72;5012628;28;20352;-61
2021/04/09 02:36:08;;;;;;;24.63;7.75;;;;;;;-1.22;71.22;99531.34;5012364;28;20515;-61
2021/04/09 02:38:34;;;;;;;14.82;7.50;;;;;;;-1.24;71.25;99538.56;5011408;28;20026;-61
2021/04/09 02:41:00;;;;;;;15.70;6.63;;;;;;;-1.13;71.16;99533.00;5012216;28;20116;-61
2021/04/09 02:43:26;;;;;;;20.67;7.38;;;;;;;-1.15;71.05;99526.25;5011274;28;20018;-61
2021/04/09 02:45:54;;;;;;;16.92;8.15;;;;;;;-1.26;71.33;99530.00;5011948;28;20042;-61
2021/04/09 02:48:20;;;;;;;17.73;6.80;;;;;;;-1.39;72.03;99527.00;5012646;28;20022;-61
2021/04/09 02:50:45;;;;;;;17.25;7.30;;;;;;;-1.69;73.22;99515.19;4994483;28;20120;-61
2021/04/09 02:53:15;;;;;;;18.95;8.38;;;;;;;-1.79;73.58;99507.44;5012510;28;20461;-61
2021/04/09 02:55:44;;;;;;;13.93;7.15;;;;;;;-1.84;73.80;99512.31;5011983;28;20432;-61
2021/04/09 02:58:10;;;;;;;14.95;7.85;;;;;;;-1.91;73.94;99506.03;5011434;28;20060;-61
2021/04/09 03:00:35;;;;;;;12.05;7.68;;;;;;;-1.97;74.04;99502.25;4994643;28;20057;-61
2021/04/09 03:03:01;;;;;;;14.35;7.32;;;;;;;-2.05;75.12;99504.78;5011189;28;20133;-61
2021/04/09 03:05:26;;;;;;;13.50;7.53;;;;;;;-2.01;75.09;99504.34;5010856;28;20050;-61
2021/04/09 03:07:52;;;;;;;15.82;7.93;;;;;;;-2.03;75.16;99505.47;5012326;28;20034;-61
2021/04/09 03:10:17;;;;;;;15.43;7.85;;;;;;;-2.03;74.86;99493.16;5010651;28;20081;-61
2021/04/09 03:12:43;;;;;;;17.08;7.97;;;;;;;-2.01;75.32;99490.38;5010979;28;20050;-61
2021/04/09 03:15:10;;;;;;;19.38;8.63;;;;;;;-2.02;75.42;99494.81;5011734;28;20080;-61
2021/04/09 03:17:54;;;;;;;18.02;8.98;;;;;;;-1.96;75.54;99490.75;5010956;28;20081;-65
2021/04/09 03:20:20;;;;;;;14.02;7.63;;;;;;;-2.03;75.64;99490.53;5012909;28;20030;-61
2021/04/09 03:22:45;;;;;;;18.40;8.32;;;;;;;-2.08;75.83;99484.91;5016158;28;20034;-61
2021/04/09 03:25:11;;;;;;;16.85;7.32;;;;;;;-2.08;75.59;99474.41;5015673;28;20472;-61
2021/04/09 03:27:36;;;;;;;16.52;6.72;;;;;;;-2.08;76.68;99479.66;5016321;28;20041;-61
2021/04/09 03:30:02;;;;;;;14.25;8.23;;;;;;;-2.06;75.74;99466.38;5015702;28;20448;-61
2021/04/09 03:32:28;;;;;;;12.82;8.13;;;;;;;-2.14;75.54;99472.41;5014746;28;20022;-61
2021/04/09 03:34:53;;;;;;;12.95;7.95;;;;;;;-2.28;75.67;99471.16;5015901;28;20034;-61
2021/04/09 03:37:19;;;;;;;17.38;8.88;;;;;;;-2.32;76.10;99471.63;5015435;28;20030;-62
2021/04/09 03:39:46;;;;;;;17.27;8.88;;;;;;;-2.40;76.57;99460.13;5015781;28;20030;-61
2021/04/09 03:42:11;;;;;;;17.05;9.68;;;;;;;-2.27;77.18;99458.84;5014216;28;20042;-61
2021/04/09 03:44:36;;;;;;;16.58;8.82;;;;;;;-2.29;76.40;99459.03;5014377;28;20037;-61
2021/04/09 03:47:02;;;;;;;18.95;9.68;;;;;;;-2.27;76.74;99456.22;5015307;28;20034;-61
2021/04/09 03:49:27;;;;;;;18.77;9.25;;;;;;;-2.27;76.50;99450.97;5015599;28;20487;-61
2021/04/09 03:51:53;;;;;;;16.88;9.98;;;;;;;-2.30;76.68;99449.47;5015250;28;20046;-61
2021/04/09 03:54:18;;;;;;;24.27;9.88;;;;;;;-2.35;76.24;99451.75;4998076;28;20160;-61
2021/04/09 03:56:44;;;;;;;26.83;9.57;;;;;;;-2.40;76.32;99448.75;5013760;28;20050;-61
2021/04/09 03:59:10;;;;;;;21.08;10.18;;;;;;;-2.35;76.09;99446.50;5015940;28;20033;-61
2021/04/09 04:01:35;;;;;;;21.08;9.88;;;;;;;-2.34;76.51;99442.91;5015635;28;20042;-61
2021/04/09 04:04:00;;;;;;;21.83;9.98;;;;;;;-2.33;76.60;99449.81;5015523;28;20025;-60
2021/04/09 04:06:26;;;;;;;19.75;9.90;;;;;;;-2.38;76.62;99438.94;5015117;28;20468;-61
2021/04/09 04:08:51;;;;;;;22.88;11.15;;;;;;;-2.44;76.85;99444.81;5014914;28;20049;-60
2021/04/09 04:11:17;;;;;;;19.80;10.32;;;;;;;-2.45;77.82;99445.78;5013606;28;20062;-61
2021/04/09 04:13:42;;;;;;;17.40;9.70;;;;;;;-2.41;77.20;99445.31;5015309;28;20029;-61
2021/04/09 04:16:08;;;;;;;16.08;9.27;;;;;;;-2.42;77.53;99446.31;5014684;28;20092;-61
2021/04/09 04:18:33;;;;;;;16.58;9.80;;;;;;;-2.37;77.84;99445.84;5015184;28;20035;-60
2021/04/09 04:20:59;;;;;;;20.55;10.27;;;;;;;-2.33;77.35;99438.47;5014743;28;20060;-60
2021/04/09 04:23:24;;;;;;;17.98;9.80;;;;;;;-2.30;77.51;99436.34;4997438;28;20034;-61
2021/04/09 04:25:49;;;;;;;23.63;10.77;;;;;;;-2.23;76.72;99439.19;5014877;28;20045;-61
2021/04/09 04:28:15;;;;;;;22.35;10.32;;;;;;;-2.14;77.06;99438.28;5015131;28;20029;-60
2021/04/09 04:30:41;;;;;;;19.38;11.18;;;;;;;-2.05;78.03;99432.06;5013948;28;20468;-61
2021/04/09 04:33:06;;;;;;;21.70;11.27;;;;;;;-2.00;77.93;99437.72;5014522;28;20029;-61
2021/04/09 04:35:31;;;;;;;26.35;10.70;;;;;;;-2.01;75.85;99432.59;5014446;28;20038;-61
2021/04/09 04:37:59;;;;;;;19.45;10.55;;;;;;;-2.04;76.92;99431.09;5013928;28;20499;-61
2021/04/09 04:40:24;;;;;;;29.13;12.77;;;;;;;-2.00;77.05;99427.19;5015035;28;20096;-60
2021/04/09 04:42:50;;;;;;;26.55;12.20;;;;;;;-1.90;76.29;99418.34;5014860;28;20022;-60
2021/04/09 04:45:17;;;;;;;32.78;15.65;;;;;;;-1.88;76.47;99421.66;5014499;28;20101;-61
2021/04/09 04:47:42;;;;;;;27.23;14.15;;;;;;;-1.95;76.01;99426.69;5014590;28;20014;-61
2021/04/09 04:50:08;;;;;;;27.77;13.77;;;;;;;-1.86;78.29;99425.78;5014393;28;20033;-61
2021/04/09 04:52:34;;;;;;;26.20;13.23;;;;;;;-1.75;78.09;99430.75;5014244;28;20148;-61
2021/04/09 04:54:59;;;;;;;23.60;12.43;;;;;;;-1.68;75.27;99436.19;5014664;28;20030;-60
2021/04/09 04:57:24;;;;;;;26.15;12.35;;;;;;;-1.64;75.16;99428.81;5014178;28;20037;-63
2021/04/09 04:59:50;;;;;;;22.65;12.07;;;;;;;-1.68;74.74;99420.41;5014622;28;20025;-59
2021/04/09 05:02:15;;;;;;;22.80;13.07;;;;;;;-1.61;75.83;99424.06;5014261;28;20034;-61
2021/04/09 05:04:41;;;;;;;25.13;12.07;;;;;;;-1.51;74.61;99426.56;5014510;28;20033;-60
2021/04/09 05:07:06;;;;;;;24.25;12.40;;;;;;;-1.51;74.41;99423.94;5014205;28;20456;-60
2021/04/09 05:09:31;;;;;;;25.42;12.50;;;;;;;-1.51;74.23;99423.94;5014250;28;20026;-59
2021/04/09 05:11:57;;;;;;;23.30;12.27;;;;;;;-1.44;74.30;99413.59;5013782;28;20042;-60
2021/04/09 05:14:22;;;;;;;25.77;12.15;;;;;;;-1.31;73.65;99412.13;5013015;28;20041;-60
2021/04/09 05:16:48;;;;;;;26.95;11.68;;;;;;;-1.03;73.68;99422.38;5013835;28;20488;-60
2021/04/09 05:19:13;;;;;;;23.58;11.13;;;;;;;-1.00;72.65;99426.47;5012797;28;20409;-60
2021/04/09 05:21:38;;;;;;;22.30;10.52;;;;;;;-0.95;72.10;99424.19;5012655;28;20041;-62
2021/04/09 05:24:05;;;;;;;22.85;11.00;;;;;;;-0.54;71.50;99421.56;5013390;28;20037;-62
2021/04/09 05:26:30;;;;;;;19.15;9.57;;;;;;;0.17;67.98;99425.19;5013877;28;20061;-62
2021/04/09 05:28:55;;;;;;;20.17;10.40;;;;;;;0.58;66.38;99422.38;5014425;28;20526;-62
2021/04/09 05:31:21;;;;;;;21.73;11.25;;;;;;;0.15;67.71;99427.16;5013027;28;20030;-62
2021/04/09 05:33:46;;;;;;;24.13;10.95;;;;;;;0.04;67.67;99420.44;5013076;28;20029;-62
2021/04/09 05:36:12;;;;;;;17.30;10.20;;;;;;;0.31;66.83;99423.66;5012099;28;20381;-61
2021/04/09 05:38:37;;;;;;;21.90;11.15;;;;;;;0.95;65.80;99423.47;5013916;28;20017;-61
2021/04/09 05:41:03;;;;;;;23.70;12.90;;;;;;;1.72;61.68;99431.25;5013534;28;20046;-61
2021/04/09 05:43:28;;;;;;;22.67;11.45;;;;;;;2.71;58.32;99437.03;5013581;28;20029;-61
2021/04/09 05:45:54;;;;;;;17.13;8.90;;;;;;;3.46;55.15;99433.09;5013266;28;20141;-62
2021/04/09 05:48:19;;;;;;;19.42;8.40;;;;;;;2.79;57.16;99426.31;5013677;28;20029;-62
2021/04/09 05:50:45;;;;;;;16.58;8.57;;;;;;;2.10;58.91;99423.28;5012930;28;20451;-61
2021/04/09 05:53:10;;;;;;;15.35;7.75;;;;;;;2.12;60.25;99415.94;5012195;28;20033;-62
2021/04/09 05:55:36;;;;;;;18.67;9.02;;;;;;;1.69;60.98;99415.75;5012097;28;20034;-62
2021/04/09 05:58:01;;;;;;;16.55;9.95;;;;;;;2.52;58.68;99414.66;5013896;28;20084;-61
2021/04/09 06:00:27;;;;;;;18.33;9.75;;;;;;;3.53;56.68;99419.09;5012115;28;20438;-62
2021/04/09 06:02:55;;;;;;;15.13;8.60;;;;;;;3.85;54.47;99413.19;5012622;28;20461;-62
2021/04/09 06:05:21;;;;;;;21.13;8.02;;;;;;;5.36;49.46;99415.75;5013286;28;20153;-62
2021/04/09 06:07:46;;;;;;;16.25;8.35;;;;;;;4.88;50.36;99417.75;5013646;28;20050;-62
2021/04/09 06:10:12;;;;;;;19.90;8.65;;;;;;;5.10;50.77;99410.44;5012836;28;20029;-62
2021/04/09 06:12:39;;;;;;;12.95;7.97;;;;;;;4.99;51.44;99414.47;5013141;28;20077;-62
2021/04/09 06:15:09;;;;;;;17.08;10.18;;;;;;;4.81;54.64;99407.09;5012678;28;20082;-62
2021/04/09 06:17:35;;;;;;;15.98;8.43;;;;;;;6.50;46.87;99412.94;5011818;28;20440;-62
2021/04/09 06:20:00;;;;;;;15.05;7.93;;;;;;;7.19;44.91;99427.31;5012570;28;20030;-62
2021/04/09 06:22:26;;;;;;;17.67;8.32;;;;;;;7.07;45.75;99424.53;5013043;28;20050;-62
2021/04/09 06:24:51;;;;;;;14.30;6.90;;;;;;;6.30;47.17;99421.81;5007719;28;20031;-62
2021/04/09 06:27:17;;;;;;;15.63;6.93;;;;;;;4.68;51.25;99413.19;4993006;28;20034;-62
2021/04/09 06:29:42;;;;;;;11.20;6.60;;;;;;;4.26;53.41;99408.94;4993422;28;20406;-62
2021/04/09 06:32:08;;;;;;;11.63;5.68;;;;;;;4.11;53.21;99414.38;4992923;28;20042;-61
2021/04/09 06:34:33;;;;;;;14.45;7.13;;;;;;;4.58;52.59;99409.28;4993310;28;20129;-62
2021/04/09 06:36:59;;;;;;;13.45;6.60;;;;;;;4.45;52.17;99405.56;4991664;28;20039;-62
2021/04/09 06:39:24;;;;;;;14.52;6.95;;;;;;;5.07;51.75;99400.22;4993550;28;20042;-62
2021/04/09 06:41:50;;;;;;;11.30;7.13;;;;;;;5.29;51.07;99399.00;4992966;28;20038;-62
2021/04/09 06:44:17;;;;;;;14.60;7.65;;;;;;;5.42;50.40;99400.84;4992168;28;20086;-61
2021/04/09 06:46:43;;;;;;;13.75;6.85;;;;;;;5.08;51.42;99389.38;4992959;28;20038;-62
2021/04/09 06:49:08;;;;;;;16.70;7.38;;;;;;;5.69;49.65;99404.31;4993174;28;20093;-62
2021/04/09 06:51:34;;;;;;;12.30;7.07;;;;;;;5.25;50.51;99395.09;4993047;28;20034;-62
2021/04/09 06:53:59;;;;;;;15.07;7.07;;;;;;;5.64;50.13;99406.75;5008497;28;20061;-61
2021/04/09 06:56:25;;;;;;;13.40;6.93;;;;;;;6.22;47.77;99404.22;4995468;28;20488;-61
2021/04/09 06:58:50;;;;;;;16.40;7.00;;;;;;;6.63;46.88;99399.56;5012517;28;20029;-62
2021/04/09 07:01:16;;;;;;;12.77;6.93;;;;;;;7.22;45.21;99386.91;4995645;28;20034;-62
2021/04/09 07:03:42;;;;;;;13.55;6.68;;;;;;;8.04;42.76;99394.75;5012273;28;20303;-62
2021/04/09 07:06:07;;;;;;;12.90;6.90;;;;;;;7.09;44.81;99383.31;4996843;28;20508;-65
2021/04/09 07:08:40;;;;;;;12.52;6.20;;;;;;;7.04;44.92;99392.94;4995755;28;20436;-61
2021/04/09 07:11:05;;;;;;;12.98;6.65;;;;;;;8.01;42.46;99390.69;4996450;28;20042;-62
2021/04/09 07:13:31;;;;;;;9.95;5.85;;;;;;;6.95;44.31;99387.06;4997003;28;20027;-62
2021/04/09 07:15:56;;;;;;;10.48;6.35;;;;;;;6.50;45.74;99384.47;4995174;28;20042;-62
2021/04/09 07:18:22;;;;;;;14.18;7.00;;;;;;;6.01;46.92;99383.19;4995618;28;20018;-62
2021/04/09 07:20:47;;;;;;;12.82;6.13;;;;;;;5.62;48.54;99371.59;4995087;28;20043;-61
2021/04/09 07:23:13;;;;;;;11.02;6.43;;;;;;;5.91;47.40;99375.59;4996689;28;20527;-62
2021/04/09 07:25:45;;;;;;;25.27;6.68;;;;;;;6.52;46.09;99382.41;4996401;28;20093;-61
2021/04/09 07:28:11;;;;;;;13.30;6.70;;;;;;;6.36;46.54;99374.88;4996623;28;20495;-62
2021/04/09 07:30:37;;;;;;;12.20;6.82;;;;;;;6.05;47.95;99373.78;4996337;28;20573;-62
2021/04/09 07:33:03;;;;;;;14.77;7.40;;;;;;;6.25;47.02;99363.88;4996580;28;20038;-62
2021/04/09 07:35:29;;;;;;;15.30;6.85;;;;;;;6.46;46.06;99368.09;4994729;28;20504;-62
2021/04/09 07:37:58;;;;;;;15.23;7.22;;;;;;;6.55;46.00;99371.31;5011697;28;20030;-62
2021/04/09 07:40:33;;;;;;;15.95;6.70;;;;;;;7.84;43.10;99361.13;5011429;28;20038;-62
2021/04/09 07:42:58;;;;;;;13.43;7.07;;;;;;;8.13;41.44;99356.06;4996426;28;20469;-62
2021/04/09 07:45:26;;;;;;;11.43;6.43;;;;;;;8.89;40.19;99361.91;4996014;28;20065;-62
2021/04/09 07:47:55;;;;;;;11.88;6.75;;;;;;;7.99;42.03;99358.91;4996437;28;20354;-62
2021/04/09 07:50:35;;;;;;;25.27;7.13;;;;;;;7.64;42.86;99355.13;5011104;28;20046;-62
2021/04/09 07:53:01;;;;;;;12.50;6.70;;;;;;;8.55;40.92;99357.00;5010115;28;20027;-61
2021/04/09 07:55:29;;;;;;;13.43;5.95;;;;;;;7.70;41.51;99352.41;4995772;28;20346;-62
2021/04/09 07:57:54;;;;;;;13.50;6.85;;;;;;;8.53;40.93;99353.75;4996173;28;20035;-62
2021/04/09 08:00:22;;;;;;;14.07;6.78;;;;;;;9.35;39.10;99347.00;5010917;28;20026;-62
2021/04/09 08:02:49;;;;;;;13.25;7.10;;;;;;;10.14;38.07;99345.53;5010937;28;20027;-62
2021/04/09 08:05:20;;;;;;;13.90;7.15;;;;;;;10.46;36.86;99345.13;4995464;28;20467;-62
2021/04/09 08:07:45;;;;;;;;;;;;;;;8.97;40.04;99345.53;4996376;28;20103;-60
2021/04/09 08:10:15;;;;;;;15.25;7.15;;;;;;;9.62;37.79;99348.16;4995592;28;20010;-63
2021/04/09 08:12:40;;;;;;;10.50;6.33;;;;;;;9.42;39.82;99353.06;4995744;28;20049;-62
2021/04/09 08:15:21;;;;;;;18.70;7.18;;;;;;;8.92;40.38;99343.53;5010446;28;20353;-62
2021/04/09 08:18:04;;;;;;;13.75;7.18;;;;;;;10.00;39.27;99338.81;5014334;28;20033;-62
2021/04/09 08:20:31;;;;;;;15.45;6.90;;;;;;;11.42;36.28;99342.47;5014949;28;20037;-61
2021/04/09 08:23:01;;;;;;;15.05;7.57;;;;;;;11.48;36.31;99338.00;5015215;28;20032;-61
2021/04/09 08:25:27;;;;;;;16.58;6.85;;;;;;;11.11;37.43;99338.50;5014910;28;20104;-61
2021/04/09 08:27:53;;;;;;;10.63;5.93;;;;;;;10.77;37.36;99343.00;5015118;28;20022;-61
2021/04/09 08:30:18;;;;;;;14.23;7.25;;;;;;;12.70;33.19;99338.78;4997405;28;20029;-61
2021/04/09 08:32:44;;;;;;;12.60;7.53;;;;;;;12.28;34.09;99346.63;4997572;28;20072;-61
2021/04/09 08:35:10;;;;;;;15.68;7.43;;;;;;;12.14;34.16;99343.50;5013396;28;20038;-62
2021/04/09 08:37:36;;;;;;;14.95;6.95;;;;;;;13.07;31.15;99338.03;5013788;28;20539;-62
2021/04/09 08:40:03;;;;;;;15.88;7.93;;;;;;;11.92;34.14;99331.94;5014852;28;20417;-62
2021/04/09 08:42:29;;;;;;;11.23;6.95;;;;;;;12.67;32.43;99331.19;5013662;28;20022;-62
2021/04/09 08:44:54;;;;;;;16.42;7.13;;;;;;;12.82;33.00;99332.44;4981228;28;20029;-62
2021/04/09 08:47:20;;;;;;;16.73;6.90;;;;;;;12.16;33.24;99333.34;4996859;28;20030;-62
2021/04/09 08:49:46;;;;;;;13.40;7.93;;;;;;;11.29;35.58;99342.81;4997286;28;20022;-62
2021/04/09 08:52:13;;;;;;;13.52;6.25;;;;;;;11.66;33.37;99328.88;5013229;28;20037;-62
2021/04/09 08:54:48;;;;;;;15.82;7.30;;;;;;;11.91;34.22;99335.72;5013666;28;20463;-62
2021/04/09 08:57:32;;;;;;;14.85;6.55;;;;;;;10.88;35.85;99334.09;5014286;28;20038;-62
2021/04/09 09:00:04;;;;;;;11.15;6.90;;;;;;;10.85;35.97;99337.25;5014695;28;20050;-62
2021/04/09 09:02:37;;;;;;;14.13;7.15;;;;;;;11.18;35.76;99333.81;5013087;28;20074;-63
2021/04/09 09:05:04;;;;;;;13.88;6.43;;;;;;;11.17;35.26;99331.34;5013366;28;20393;-62
2021/04/09 09:07:48;;;;;;;16.85;7.00;;;;;;;11.73;33.66;99329.53;5013541;28;20022;-62
2021/04/09 09:10:19;;;;;;;12.35;7.20;;;;;;;11.51;34.14;99336.72;5013090;28;20030;-63
2021/04/09 09:13:07;;;;;;;15.75;6.75;;;;;;;12.10;33.62;99328.94;5014456;28;20096;-63
2021/04/09 09:15:41;;;;;;;12.60;6.72;;;;;;;11.45;33.90;99331.25;5012533;28;20042;-62
2021/04/09 09:18:19;;;;;;;16.13;7.22;;;;;;;10.80;36.18;99329.13;5014033;28;20026;-62
2021/04/09 09:21:08;;;;;;;13.48;5.82;;;;;;;11.59;33.89;99336.31;5014198;28;20131;-62
2021/04/09 09:23:56;;;;;;;14.88;6.75;;;;;;;10.68;35.83;99317.63;5014549;28;20060;-62
2021/04/09 09:26:41;;;;;;;12.23;5.72;;;;;;;9.92;37.23;99305.19;5014063;28;20038;-62
2021/04/09 09:29:20;;;;;;;13.00;6.68;;;;;;;12.24;33.99;99324.03;5014393;28;20033;-63
2021/04/09 09:31:46;;;;;;;13.93;7.07;;;;;;;11.41;34.32;99326.66;5013698;28;20453;-63
2021/04/09 09:34:17;;;;;;;15.40;6.38;;;;;;;11.74;34.92;99315.03;5014097;28;20056;-62
2021/04/09 09:37:07;;;;;;;15.48;6.55;;;;;;;12.88;32.09;99312.56;5013508;28;20042;-62
2021/04/09 09:39:53;;;;;;;10.45;6.07;;;;;;;11.20;35.61;99309.41;5013967;28;20142;-62
2021/04/09 09:42:28;;;;;;;15.45;7.13;;;;;;;12.51;32.83;99307.94;5013246;28;20134;-62
2021/04/09 09:45:03;;;;;;;13.10;6.47;;;;;;;11.69;33.34;99306.91;5013738;28;20076;-62
2021/04/09 09:47:31;;;;;;;12.65;6.45;;;;;;;12.54;32.47;99307.41;5012144;28;20046;-62
2021/04/09 09:50:12;;;;;;;11.00;6.90;;;;;;;12.16;34.68;99306.47;5013567;28;20033;-62
2021/04/09 09:52:53;;;;;;;13.90;6.60;;;;;;;11.84;34.08;99304.44;5013423;28;20373;-62
2021/04/09 09:55:37;;;;;;;;;;;;;;;12.21;32.94;99303.84;5013758;28;20372;-62
2021/04/09 09:58:26;;;;;;;10.98;5.97;;;;;;;10.85;35.22;99301.59;5013517;28;19913;-62
2021/04/09 10:00:52;;;;;;;11.73;6.55;;;;;;;12.24;33.78;99305.22;5012972;28;20046;-61
2021/04/09 10:03:28;;;;;;;12.25;6.38;;;;;;;13.45;29.87;99298.50;4995983;28;20033;-62
2021/04/09 10:05:57;;;;;;;14.20;7.05;;;;;;;13.49;30.27;99288.84;5013168;28;20053;-61
2021/04/09 10:08:22;;;;;;;14.30;6.80;;;;;;;14.82;29.48;99292.03;5013573;28;20026;-61
2021/04/09 10:10:51;;;;;;;15.70;6.53;;;;;;;14.43;28.82;99295.19;5012213;28;20103;-61
2021/04/09 10:13:23;;;;;;;13.85;6.88;;;;;;;14.75;28.64;99279.88;5013149;28;20046;-61
2021/04/09 10:15:50;;;;;;;14.20;7.00;;;;;;;14.57;28.64;99276.63;5012720;28;20034;-61
2021/04/09 10:18:16;;;;;;;13.82;6.78;;;;;;;14.05;29.54;99265.94;4995849;28;20026;-62
2021/04/09 10:20:42;;;;;;;12.40;6.32;;;;;;;14.25;28.78;99268.69;5013024;28;20346;-61
2021/04/09 10:23:07;;;;;;;15.13;6.93;;;;;;;13.09;31.29;99265.13;5013153;28;20053;-61
2021/04/09 10:25:33;;;;;;;14.82;6.60;;;;;;;14.01;29.37;99261.09;5010645;28;20583;-61
2021/04/09 10:27:59;;;;;;;12.50;6.75;;;;;;;12.60;31.25;99258.00;5011776;28;20030;-61
2021/04/09 10:30:27;;;;;;;12.73;6.85;;;;;;;13.67;29.53;99255.28;5011902;28;20084;-62
2021/04/09 10:32:52;;;;;;;15.63;7.00;;;;;;;13.17;30.58;99254.69;5012887;28;20457;-63
2021/04/09 10:35:25;;;;;;;12.60;6.65;;;;;;;13.84;29.92;99244.31;5012381;28;20072;-61
2021/04/09 10:37:51;;;;;;;17.05;8.00;;;;;;;13.45;30.87;99247.34;5012898;28;20037;-61
2021/04/09 10:40:17;;;;;;;14.02;7.35;;;;;;;14.69;28.08;99254.81;5011314;28;20067;-62
2021/04/09 10:42:58;;;;;;;14.00;6.95;;;;;;;14.81;27.19;99241.84;4995336;28;20038;-61
2021/04/09 10:45:23;;;;;;;16.42;6.70;;;;;;;16.11;26.61;99241.28;5011298;28;20113;-61
2021/04/09 10:47:49;;;;;;;11.95;6.45;;;;;;;16.51;24.93;99234.81;5011649;28;20357;-62
2021/04/09 10:50:14;;;;;;;12.38;6.68;;;;;;;15.00;27.57;99233.22;5011131;28;20021;-62
2021/04/09 10:52:39;;;;;;;11.57;6.57;;;;;;;15.02;27.08;99225.66;5012840;28;20025;-61
2021/04/09 10:55:06;;;;;;;14.52;6.55;;;;;;;15.29;26.24;99231.53;5011228;28;20034;-62
2021/04/09 10:57:34;;;;;;;13.68;6.35;;;;;;;15.24;26.44;99223.47;5012964;28;20076;-61
2021/04/09 11:00:02;;;;;;;11.57;5.88;;;;;;;13.94;28.47;99209.34;5012949;28;20035;-61
2021/04/09 11:02:27;;;;;;;16.77;6.55;;;;;;;14.93;27.93;99216.50;4979279;28;20129;-62
2021/04/09 11:04:57;;;;;;;11.45;5.38;;;;;;;14.36;27.71;99210.25;5012999;28;20030;-61
2021/04/09 11:07:42;;;;;;;10.43;6.67;;;;;;;15.36;26.44;99200.75;4995096;28;20121;-61
2021/04/09 11:10:09;;;;;;;12.98;5.80;;;;;;;15.25;26.86;99208.91;5011135;28;20722;-61
2021/04/09 11:12:34;;;;;;;16.35;6.90;;;;;;;14.91;26.67;99215.97;5012490;28;20070;-61
2021/04/09 11:15:11;;;;;;;13.45;6.53;;;;;;;16.07;25.33;99208.59;5012688;28;20058;-61
2021/04/09 11:17:39;;;;;;;13.70;5.75;;;;;;;16.64;24.38;99202.81;5012264;28;20049;-61
2021/04/09 11:20:24;;;;;;;10.85;5.20;;;;;;;16.12;25.55;99195.03;5012155;28;20014;-61
2021/04/09 11:23:09;;;;;;;11.07;5.40;;;;;;;15.76;24.72;99196.34;5012563;28;20022;-62
2021/04/09 11:25:53;;;;;;;18.35;5.53;;;;;;;15.67;24.79;99187.94;5012224;28;20034;-62
2021/04/09 11:28:28;;;;;;;10.02;5.35;;;;;;;16.08;25.54;99194.00;5012456;28;20030;-62
2021/04/09 11:31:01;;;;;;;13.88;5.70;;;;;;;16.01;24.98;99198.09;5012324;28;20061;-62